createdAt,value
2018-03-18T00:01:54.908Z,43.92
2018-03-18T00:04:22.062Z,40.35
2018-03-18T00:06:49.198Z,44.80
2018-03-18T00:09:15.565Z,47.35
2018-03-18T00:11:41.956Z,42.33
2018-03-18T00:14:08.365Z,43.87
2018-03-18T00:16:34.772Z,44.85
2018-03-18T00:19:01.194Z,44.30
2018-03-18T00:21:28.334Z,44.22
2018-03-18T00:23:55.472Z,44.63
2018-03-18T00:26:21.838Z,42.30
2018-03-18T00:28:48.239Z,43.75
2018-03-18T00:31:14.643Z,44.47
2018-03-18T00:33:41.078Z,43.80
2018-03-18T00:36:07.530Z,44.80
2018-03-18T00:38:33.902Z,44.63
2018-03-18T00:41:00.303Z,46.97
2018-03-18T00:43:26.702Z,45.95
2018-03-18T00:45:53.075Z,46.53
2018-03-18T00:48:20.267Z,43.13
2018-03-18T00:50:46.654Z,45.50
2018-03-18T00:53:13.054Z,45.08
2018-03-18T00:55:39.472Z,44.40
2018-03-18T00:58:05.867Z,44.55
2018-03-18T01:00:32.255Z,45.00
2018-03-18T01:02:58.635Z,45.05
2018-03-18T01:05:25.777Z,45.40
2018-03-18T01:07:52.154Z,45.80
2018-03-18T01:10:18.566Z,44.63
2018-03-18T01:12:45.710Z,47.58
2018-03-18T01:15:12.866Z,50.05
2018-03-18T01:17:40.005Z,47.72
2018-03-18T01:20:06.381Z,45.92
2018-03-18T01:22:32.791Z,44.23
2018-03-18T01:24:59.909Z,43.47
2018-03-18T01:27:26.315Z,42.38
2018-03-18T01:29:52.715Z,40.75
2018-03-18T01:32:19.830Z,41.10
2018-03-18T01:34:46.255Z,39.75
2018-03-18T01:37:12.649Z,40.90
2018-03-18T01:39:39.042Z,38.42
2018-03-18T01:42:05.437Z,40.58
2018-03-18T01:44:31.847Z,39.10
2018-03-18T01:46:58.246Z,38.72
2018-03-18T01:49:24.614Z,36.38
2018-03-18T01:51:51.058Z,36.77
2018-03-18T01:54:17.431Z,34.25
2018-03-18T01:56:43.827Z,37.55
2018-03-18T01:59:10.226Z,35.28
2018-03-18T02:01:37.355Z,38.00
2018-03-18T02:04:03.792Z,38.03
2018-03-18T02:06:30.166Z,37.03
2018-03-18T02:08:56.599Z,37.10
2018-03-18T02:11:22.977Z,35.67
2018-03-18T02:13:49.382Z,36.15
2018-03-18T02:16:15.781Z,34.38
2018-03-18T02:18:42.889Z,34.28
2018-03-18T02:21:09.283Z,35.60
2018-03-18T02:23:35.654Z,36.72
2018-03-18T02:26:02.075Z,36.80
2018-03-18T02:28:28.454Z,33.53
2018-03-18T02:30:54.839Z,32.05
2018-03-18T02:33:21.258Z,44.78
2018-03-18T02:35:47.700Z,38.47
2018-03-18T02:38:14.135Z,36.58
2018-03-18T02:40:40.520Z,35.50
2018-03-18T02:43:06.905Z,35.05
2018-03-18T02:45:33.319Z,35.25
2018-03-18T02:47:59.702Z,35.60
2018-03-18T02:50:26.105Z,38.03
2018-03-18T02:52:52.532Z,37.88
2018-03-18T02:55:18.914Z,37.10
2018-03-18T02:57:45.331Z,39.95
2018-03-18T03:00:11.706Z,40.63
2018-03-18T03:02:38.834Z,40.60
2018-03-18T03:05:05.206Z,39.55
2018-03-18T03:07:31.610Z,42.08
2018-03-18T03:09:58.009Z,42.08
2018-03-18T03:12:24.386Z,42.85
2018-03-18T03:14:51.529Z,41.55
2018-03-18T03:17:17.919Z,41.22
2018-03-18T03:19:44.314Z,42.30
2018-03-18T03:22:11.508Z,45.65
2018-03-18T03:24:37.916Z,42.33
2018-03-18T03:27:04.331Z,44.20
2018-03-18T03:29:31.435Z,43.75
2018-03-18T03:31:57.827Z,43.03
2018-03-18T03:34:24.221Z,48.15
2018-03-18T03:36:50.638Z,45.22
2018-03-18T03:39:17.026Z,43.20
2018-03-18T03:49:02.835Z,33.15
2018-03-18T03:51:29.218Z,47.90
2018-03-18T03:53:55.628Z,49.72
2018-03-18T03:56:22.074Z,46.42
2018-03-18T03:58:48.473Z,45.95
2018-03-18T04:01:14.863Z,45.30
2018-03-18T04:03:41.246Z,50.03
2018-03-18T04:06:07.650Z,44.63
2018-03-18T04:08:34.053Z,47.90
2018-03-18T04:11:00.449Z,48.42
2018-03-18T04:13:26.822Z,47.40
2018-03-18T04:15:53.236Z,47.43
2018-03-18T04:18:20.387Z,49.17
2018-03-18T04:20:47.559Z,44.55
2018-03-18T04:23:14.033Z,43.95
2018-03-18T04:25:40.431Z,44.93
2018-03-18T04:28:06.827Z,48.20
2018-03-18T04:30:33.970Z,44.80
2018-03-18T04:33:00.413Z,44.33
2018-03-18T04:35:26.796Z,46.58
2018-03-18T04:37:53.218Z,45.20
2018-03-18T04:40:19.678Z,40.83
2018-03-18T04:42:46.126Z,42.95
2018-03-18T04:45:12.545Z,43.67
2018-03-18T04:47:38.951Z,41.92
2018-03-18T04:50:05.333Z,41.42
2018-03-18T04:52:31.739Z,44.50
2018-03-18T04:54:58.126Z,42.47
2018-03-18T04:57:25.262Z,44.65
2018-03-18T04:59:51.646Z,35.55
2018-03-18T05:02:18.009Z,35.90
2018-03-18T05:04:44.409Z,36.47
2018-03-18T05:07:10.817Z,36.22
2018-03-18T05:09:37.942Z,36.27
2018-03-18T05:12:04.351Z,36.72
2018-03-18T05:14:30.731Z,35.47
2018-03-18T05:16:57.117Z,33.90
2018-03-18T05:19:23.512Z,36.33
2018-03-18T05:21:50.674Z,34.40
2018-03-18T05:24:17.054Z,34.90
2018-03-18T05:26:43.471Z,35.28
2018-03-18T05:29:09.878Z,34.33
2018-03-18T05:31:36.298Z,33.28
2018-03-18T05:34:03.454Z,29.30
2018-03-18T05:36:29.834Z,36.22
2018-03-18T05:38:56.295Z,31.25
2018-03-18T05:41:22.662Z,30.75
2018-03-18T05:43:49.101Z,28.92
2018-03-18T05:46:15.529Z,28.83
2018-03-18T05:48:41.897Z,31.63
2018-03-18T05:51:08.286Z,28.25
2018-03-18T05:53:35.397Z,29.67
2018-03-18T05:56:01.797Z,27.90
2018-03-18T05:58:28.182Z,27.30
2018-03-18T06:00:54.579Z,27.70
2018-03-18T06:03:20.955Z,31.37
2018-03-18T06:05:48.092Z,29.87
2018-03-18T06:08:14.475Z,26.52
2018-03-18T06:10:40.903Z,27.95
2018-03-18T06:13:07.290Z,27.17
2018-03-18T06:15:33.682Z,29.95
2018-03-18T06:18:00.109Z,26.77
2018-03-18T06:20:27.230Z,26.95
2018-03-18T06:22:54.376Z,31.60
2018-03-18T06:25:20.816Z,28.33
2018-03-18T06:27:48.042Z,26.98
2018-03-18T06:30:14.412Z,27.98
2018-03-18T06:32:41.543Z,26.95
2018-03-18T06:35:07.902Z,25.00
2018-03-18T06:37:34.350Z,24.45
2018-03-18T06:40:00.779Z,25.48
2018-03-18T06:42:27.165Z,27.33
2018-03-18T06:44:53.574Z,25.62
2018-03-18T06:47:19.966Z,25.75
2018-03-18T06:49:47.105Z,23.83
2018-03-18T06:52:14.223Z,27.25
2018-03-18T06:54:40.642Z,26.58
2018-03-18T06:57:07.076Z,27.55
2018-03-18T06:59:33.464Z,26.90
2018-03-18T07:02:00.605Z,25.65
2018-03-18T07:04:26.987Z,26.30
2018-03-18T07:06:53.379Z,24.85
2018-03-18T07:09:20.506Z,27.50
2018-03-18T07:11:46.907Z,24.17
2018-03-18T07:14:13.307Z,27.08
2018-03-18T07:16:40.436Z,27.50
2018-03-18T07:19:06.838Z,25.73
2018-03-18T07:21:33.214Z,25.98
2018-03-18T07:24:00.348Z,29.05
2018-03-18T07:26:27.457Z,31.17
2018-03-18T07:28:53.858Z,27.98
2018-03-18T07:31:20.990Z,27.13
2018-03-18T07:33:48.105Z,30.35
2018-03-18T07:36:14.510Z,31.92
2018-03-18T07:38:40.984Z,30.45
2018-03-18T07:41:07.371Z,31.27
2018-03-18T07:43:34.494Z,31.65
2018-03-18T07:46:00.922Z,36.65
2018-03-18T07:48:27.317Z,31.05
2018-03-18T07:50:53.709Z,32.17
2018-03-18T07:53:20.842Z,26.70
2018-03-18T07:55:47.988Z,27.08
2018-03-18T07:58:14.373Z,22.23
2018-03-18T08:00:40.834Z,29.27
2018-03-18T08:03:07.256Z,26.67
2018-03-18T08:05:33.635Z,31.15
2018-03-18T08:08:00.778Z,36.55
2018-03-18T08:10:27.182Z,26.25
2018-03-18T08:12:53.549Z,23.38
2018-03-18T08:15:20.691Z,24.52
2018-03-18T08:17:47.072Z,26.35
2018-03-18T08:20:13.479Z,24.23
2018-03-18T08:22:39.863Z,25.48
2018-03-18T08:25:06.269Z,26.20
2018-03-18T08:27:32.656Z,27.92
2018-03-18T08:29:59.030Z,27.95
2018-03-18T08:32:26.171Z,22.60
2018-03-18T08:34:53.314Z,31.35
2018-03-18T08:37:19.715Z,26.75
2018-03-18T08:39:46.115Z,25.33
2018-03-18T08:42:12.537Z,28.87
2018-03-18T08:44:39.674Z,27.98
2018-03-18T08:47:06.788Z,26.70
2018-03-18T08:49:33.207Z,27.13
2018-03-18T08:51:59.618Z,24.15
2018-03-18T08:54:26.038Z,20.90
2018-03-18T08:56:53.185Z,24.75
2018-03-18T08:59:20.348Z,25.90
2018-03-18T09:01:46.752Z,21.70
2018-03-18T09:04:13.131Z,25.58
2018-03-18T09:06:39.550Z,27.85
2018-03-18T09:09:05.954Z,21.65
2018-03-18T09:11:32.360Z,26.27
2018-03-18T09:13:58.760Z,20.90
2018-03-18T09:16:25.154Z,25.75
2018-03-18T09:18:51.574Z,25.90
2018-03-18T09:21:17.983Z,25.35
2018-03-18T09:23:44.390Z,28.20
2018-03-18T09:26:10.811Z,25.05
2018-03-18T09:28:37.951Z,23.38
2018-03-18T09:31:05.115Z,26.30
2018-03-18T09:33:32.291Z,26.60
2018-03-18T09:35:58.668Z,22.83
2018-03-18T09:38:26.521Z,21.48
2018-03-18T09:40:52.931Z,21.37
2018-03-18T09:43:19.310Z,24.48
2018-03-18T09:45:46.106Z,18.35
2018-03-18T09:48:12.511Z,18.42
2018-03-18T09:50:39.653Z,23.42
2018-03-18T09:53:06.782Z,24.33
2018-03-18T09:55:33.935Z,26.08
2018-03-18T09:58:01.101Z,18.27
2018-03-18T10:00:27.486Z,20.27
2018-03-18T10:02:53.912Z,23.20
2018-03-18T10:05:20.512Z,21.70
2018-03-18T10:07:46.942Z,22.95
2018-03-18T10:10:13.334Z,18.15
2018-03-18T10:12:39.731Z,23.23
2018-03-18T10:15:06.910Z,20.52
2018-03-18T10:17:33.291Z,20.40
2018-03-18T10:19:59.700Z,15.18
2018-03-18T10:22:26.071Z,22.20
2018-03-18T10:24:53.215Z,22.40
2018-03-18T10:27:19.586Z,21.25
2018-03-18T10:29:45.997Z,23.17
2018-03-18T10:32:13.150Z,25.90
2018-03-18T10:34:40.306Z,24.92
2018-03-18T10:37:06.711Z,18.45
2018-03-18T10:39:33.117Z,17.73
2018-03-18T10:41:59.573Z,17.62
2018-03-18T10:44:26.722Z,18.75
2018-03-18T10:46:53.167Z,23.07
2018-03-18T10:49:20.378Z,21.60
2018-03-18T10:51:46.822Z,22.70
2018-03-18T10:54:13.258Z,22.73
2018-03-18T10:56:39.684Z,22.95
2018-03-18T10:59:06.114Z,21.75
2018-03-18T11:01:33.462Z,21.50
2018-03-18T11:04:06.027Z,24.42
2018-03-18T11:06:32.462Z,22.60
2018-03-18T11:08:58.914Z,23.95
2018-03-18T11:11:25.370Z,20.35
2018-03-18T11:13:51.853Z,22.23
2018-03-18T11:16:19.098Z,22.42
2018-03-18T11:18:45.413Z,24.50
2018-03-18T11:21:11.815Z,22.40
2018-03-18T11:23:38.252Z,24.10
2018-03-18T11:26:04.697Z,21.67
2018-03-18T11:28:31.113Z,22.55
2018-03-18T11:30:57.574Z,22.50
2018-03-18T11:33:24.002Z,22.65
2018-03-18T11:35:50.511Z,23.67
2018-03-18T11:38:16.963Z,23.42
2018-03-18T11:40:43.388Z,23.98
2018-03-18T11:43:09.854Z,22.53
2018-03-18T11:45:36.330Z,22.60
2018-03-18T11:48:03.500Z,25.27
2018-03-18T11:50:30.016Z,24.02
2018-03-18T11:52:57.158Z,22.45
2018-03-18T11:55:24.303Z,24.65
2018-03-18T11:57:50.712Z,27.60
2018-03-18T12:00:17.181Z,23.52
2018-03-18T12:02:44.333Z,25.55
2018-03-18T12:05:11.471Z,26.00
2018-03-18T12:07:37.895Z,24.50
2018-03-18T12:10:04.291Z,23.38
2018-03-18T12:12:30.687Z,25.08
2018-03-18T12:14:57.827Z,23.80
2018-03-18T12:17:24.254Z,24.10
2018-03-18T12:19:50.718Z,24.10
2018-03-18T12:22:17.895Z,22.02
2018-03-18T12:24:44.323Z,24.05
2018-03-18T12:27:10.702Z,24.45
2018-03-18T12:29:37.117Z,23.50
2018-03-18T12:32:03.501Z,24.42
2018-03-18T12:34:30.659Z,24.37
2018-03-18T12:36:57.780Z,24.60
2018-03-18T12:39:24.248Z,24.37
2018-03-18T12:41:51.398Z,24.20
2018-03-18T12:44:18.535Z,24.15
2018-03-18T12:46:45.698Z,23.25
2018-03-18T12:49:12.809Z,21.70
2018-03-18T12:51:39.234Z,25.15
2018-03-18T12:54:05.665Z,24.08
2018-03-18T12:56:32.146Z,26.60
2018-03-18T12:58:59.352Z,23.20
2018-03-18T13:01:25.776Z,24.33
2018-03-18T13:03:52.239Z,24.37
2018-03-18T13:06:18.641Z,24.98
2018-03-18T13:08:45.050Z,26.40
2018-03-18T13:11:12.162Z,24.45
2018-03-18T13:13:38.566Z,21.05
2018-03-18T13:16:04.965Z,24.08
2018-03-18T13:18:32.103Z,25.35
2018-03-18T13:20:59.303Z,22.80
2018-03-18T13:23:25.681Z,23.83
2018-03-18T13:25:52.073Z,26.25
2018-03-18T13:28:18.484Z,23.83
2018-03-18T13:30:44.879Z,23.40
2018-03-18T13:33:11.298Z,24.65
2018-03-18T13:35:38.428Z,22.62
2018-03-18T13:38:04.893Z,22.33
2018-03-18T13:40:31.276Z,23.70
2018-03-18T13:42:57.706Z,22.65
2018-03-18T13:45:24.086Z,23.92
2018-03-18T13:47:50.544Z,23.85
2018-03-18T13:50:16.928Z,25.00
2018-03-18T13:52:43.364Z,22.50
2018-03-18T13:55:09.787Z,22.62
2018-03-18T13:57:36.169Z,25.12
2018-03-18T14:00:02.720Z,25.27
2018-03-18T14:02:29.098Z,24.92
2018-03-18T14:04:55.527Z,27.17
2018-03-18T14:07:21.934Z,23.52
2018-03-18T14:09:49.090Z,22.33
2018-03-18T14:12:15.510Z,23.90
2018-03-18T14:14:42.637Z,24.58
2018-03-18T14:17:09.084Z,24.80
2018-03-18T14:19:35.598Z,22.95
2018-03-18T14:22:02.037Z,25.25
2018-03-18T14:24:28.422Z,26.60
2018-03-18T14:26:54.825Z,24.02
2018-03-18T14:29:21.399Z,25.73
2018-03-18T14:31:47.826Z,27.37
2018-03-18T14:34:14.224Z,27.13
2018-03-18T14:36:40.996Z,26.87
2018-03-18T14:39:08.169Z,24.63
2018-03-18T14:41:34.559Z,24.90
2018-03-18T14:44:00.998Z,28.10
2018-03-18T14:46:27.421Z,26.85
2018-03-18T14:48:53.814Z,23.52
2018-03-18T14:51:20.272Z,24.92
2018-03-18T14:53:46.646Z,23.23
2018-03-18T14:56:13.791Z,25.45
2018-03-18T14:58:40.920Z,24.85
2018-03-18T15:01:07.358Z,24.95
2018-03-18T15:03:33.784Z,26.33
2018-03-18T15:06:00.241Z,24.92
2018-03-18T15:08:26.638Z,23.48
2018-03-18T15:10:53.042Z,26.08
2018-03-18T15:13:19.492Z,25.70
2018-03-18T15:15:45.898Z,26.33
2018-03-18T15:18:13.106Z,23.42
2018-03-18T15:20:39.543Z,24.50
2018-03-18T15:23:05.995Z,26.33
2018-03-18T15:25:32.482Z,23.83
2018-03-18T15:27:58.886Z,21.98
2018-03-18T15:30:26.125Z,26.35
2018-03-18T15:32:52.539Z,25.80
2018-03-18T15:35:19.019Z,27.83
2018-03-18T15:37:45.462Z,24.80
2018-03-18T15:40:11.900Z,25.67
2018-03-18T15:42:38.374Z,26.08
2018-03-18T15:45:04.775Z,24.65
2018-03-18T15:47:31.201Z,26.00
2018-03-18T15:49:57.654Z,24.98
2018-03-18T15:52:24.085Z,25.77
2018-03-18T15:54:50.558Z,22.80
2018-03-18T15:57:16.982Z,24.45
2018-03-18T15:59:43.465Z,24.30
2018-03-18T16:02:09.867Z,24.23
2018-03-18T16:04:37.073Z,23.15
2018-03-18T16:07:03.561Z,23.85
2018-03-18T16:09:30.019Z,24.10
2018-03-18T16:11:57.213Z,26.08
2018-03-18T16:14:23.626Z,24.23
2018-03-18T16:16:50.036Z,25.37
2018-03-18T16:19:17.249Z,24.70
2018-03-18T16:21:43.659Z,23.42
2018-03-18T16:24:10.070Z,25.30
2018-03-18T16:26:36.685Z,23.62
2018-03-18T16:29:16.094Z,23.92
2018-03-18T16:31:42.506Z,26.33
2018-03-18T16:34:09.009Z,25.57
2018-03-18T16:36:36.163Z,26.92
2018-03-18T16:39:03.564Z,26.65
2018-03-18T16:41:30.006Z,26.80
2018-03-18T16:43:56.439Z,24.90
2018-03-18T16:46:22.836Z,22.92
2018-03-18T16:48:49.270Z,24.30
2018-03-18T16:51:15.690Z,23.20
2018-03-18T16:53:42.859Z,26.30
2018-03-18T16:56:09.304Z,25.73
2018-03-18T16:58:35.805Z,23.33
2018-03-18T17:01:02.993Z,24.65
2018-03-18T17:03:29.447Z,23.90
2018-03-18T17:05:55.883Z,25.58
2018-03-18T17:08:22.278Z,26.85
2018-03-18T17:10:48.682Z,27.60
2018-03-18T17:13:15.117Z,23.17
2018-03-18T17:15:43.188Z,23.45
2018-03-18T17:18:09.823Z,23.40
2018-03-18T17:20:36.230Z,21.33
2018-03-18T17:23:02.766Z,23.73
2018-03-18T17:25:29.245Z,26.55
2018-03-18T17:27:56.374Z,26.52
2018-03-18T17:30:22.776Z,23.75
2018-03-18T17:32:49.188Z,21.67
2018-03-18T17:35:15.589Z,22.90
2018-03-18T17:37:42.012Z,25.30
2018-03-18T17:40:08.454Z,23.77
2018-03-18T17:42:34.895Z,22.13
2018-03-18T17:45:13.680Z,23.30
2018-03-18T17:47:52.393Z,23.70
2018-03-18T17:53:31.145Z,24.75
2018-03-18T17:56:09.851Z,24.60
2018-03-18T17:58:36.296Z,27.07
2018-03-18T18:01:02.774Z,27.17
2018-03-18T18:03:29.191Z,23.48
2018-03-18T18:05:55.661Z,25.55
2018-03-18T18:08:22.878Z,23.98
2018-03-18T18:10:49.355Z,22.08
2018-03-18T18:13:16.491Z,24.02
2018-03-18T18:15:42.910Z,27.25
2018-03-18T18:18:09.289Z,27.73
2018-03-18T18:20:35.689Z,26.05
2018-03-18T18:23:02.142Z,28.02
2018-03-18T18:25:29.292Z,25.75
2018-03-18T18:27:56.479Z,25.83
2018-03-18T18:30:22.939Z,25.02
2018-03-18T18:32:49.398Z,23.83
2018-03-18T18:35:16.564Z,27.83
2018-03-18T18:37:43.733Z,25.90
2018-03-18T18:40:10.879Z,28.10
2018-03-18T18:42:38.037Z,23.50
2018-03-18T18:45:05.243Z,29.17
2018-03-18T18:47:31.747Z,27.40
2018-03-18T18:49:58.206Z,25.90
2018-03-18T18:52:24.681Z,25.95
2018-03-18T18:54:51.879Z,25.45
2018-03-18T18:57:18.294Z,27.60
2018-03-18T18:59:44.685Z,26.80
2018-03-18T19:02:11.129Z,27.65
2018-03-18T19:04:37.570Z,25.95
2018-03-18T19:07:04.776Z,25.90
2018-03-18T19:09:31.223Z,26.83
2018-03-18T19:11:57.707Z,25.90
2018-03-18T19:14:24.913Z,32.83
2018-03-18T19:16:51.385Z,29.00
2018-03-18T19:19:18.576Z,29.02
2018-03-18T19:21:44.976Z,29.95
2018-03-18T19:24:12.122Z,25.42
2018-03-18T19:26:39.257Z,26.60
2018-03-18T19:29:05.682Z,25.97
2018-03-18T19:31:32.097Z,27.80
2018-03-18T19:33:58.537Z,24.08
2018-03-18T19:36:24.969Z,23.40
2018-03-18T19:38:51.367Z,27.30
2018-03-18T19:41:17.797Z,25.90
2018-03-18T19:43:44.223Z,22.93
2018-03-18T19:46:11.410Z,22.98
2018-03-18T19:48:38.028Z,25.60
2018-03-18T19:51:04.452Z,26.47
2018-03-18T19:53:31.588Z,23.30
2018-03-18T19:55:57.973Z,22.45
2018-03-18T19:58:24.390Z,23.70
2018-03-18T20:00:50.771Z,24.15
2018-03-18T20:03:17.208Z,26.73
2018-03-18T20:05:43.604Z,27.25
2018-03-18T20:08:10.035Z,26.23
2018-03-18T20:10:36.415Z,25.37
2018-03-18T20:13:03.568Z,27.42
2018-03-18T20:15:29.988Z,26.95
2018-03-18T20:17:56.387Z,26.27
2018-03-18T20:20:22.854Z,29.25
2018-03-18T20:22:49.275Z,24.75
2018-03-18T20:25:15.741Z,28.40
2018-03-18T20:27:42.974Z,27.35
2018-03-18T20:30:09.387Z,25.80
2018-03-18T20:32:35.833Z,27.23
2018-03-18T20:35:02.286Z,28.65
2018-03-18T20:37:29.476Z,26.45
2018-03-18T20:39:55.901Z,28.27
2018-03-18T20:42:23.056Z,27.33
2018-03-18T20:44:50.193Z,25.55
2018-03-18T20:47:16.647Z,25.90
2018-03-18T20:49:45.588Z,26.10
2018-03-18T20:52:11.978Z,26.95
2018-03-18T20:54:38.402Z,28.83
2018-03-18T20:57:06.123Z,24.65
2018-03-18T20:59:32.539Z,26.95
2018-03-18T21:01:58.982Z,28.33
2018-03-18T21:04:25.417Z,28.05
2018-03-18T21:06:51.842Z,26.50
2018-03-18T21:09:18.212Z,25.17
2018-03-18T21:11:44.644Z,27.62
2018-03-18T21:14:11.139Z,27.05
2018-03-18T21:16:37.566Z,25.80
2018-03-18T21:19:03.976Z,27.97
2018-03-18T21:21:31.133Z,23.42
2018-03-18T21:23:58.333Z,28.02
2018-03-18T21:26:24.766Z,30.55
2018-03-18T21:28:51.154Z,27.00
2018-03-18T21:31:18.291Z,26.70
2018-03-18T21:33:44.727Z,24.92
2018-03-18T21:36:11.098Z,27.05
2018-03-18T21:38:37.506Z,27.93
2018-03-18T21:41:04.620Z,26.40
2018-03-18T21:43:30.990Z,25.70
2018-03-18T21:45:58.152Z,27.40
2018-03-18T21:48:25.273Z,28.10
2018-03-18T21:50:51.671Z,26.37
2018-03-18T21:53:18.094Z,26.70
2018-03-18T21:55:44.481Z,27.50
2018-03-18T21:58:10.879Z,29.40
2018-03-18T22:00:37.281Z,29.53
2018-03-18T22:03:03.710Z,26.95
2018-03-18T22:05:30.129Z,26.60
2018-03-18T22:07:57.266Z,29.30
2018-03-18T22:10:24.410Z,28.92
2018-03-18T22:12:50.789Z,28.45
2018-03-18T22:15:17.211Z,27.92
2018-03-18T22:17:44.358Z,25.23
2018-03-18T22:20:11.502Z,28.17
2018-03-18T22:22:38.647Z,27.67
2018-03-18T22:25:05.771Z,28.80
2018-03-18T22:27:32.193Z,28.80
2018-03-18T22:29:58.567Z,30.15
2018-03-18T22:32:25.697Z,30.77
2018-03-18T22:34:52.075Z,28.67
2018-03-18T22:37:18.474Z,32.47
2018-03-18T22:39:44.883Z,31.20
2018-03-18T22:42:11.267Z,29.73
2018-03-18T22:44:38.415Z,29.90
2018-03-18T22:47:05.542Z,29.60
2018-03-18T22:49:31.929Z,27.65
2018-03-18T22:51:58.308Z,28.35
2018-03-18T22:54:24.720Z,28.87
2018-03-18T22:56:51.123Z,31.08
2018-03-18T22:59:17.498Z,29.48
2018-03-18T23:01:43.924Z,27.35
2018-03-18T23:04:10.297Z,34.78
2018-03-18T23:06:37.444Z,29.85
2018-03-18T23:09:04.557Z,30.30
2018-03-18T23:11:30.965Z,29.27
2018-03-18T23:13:57.371Z,27.90
2018-03-18T23:16:24.486Z,29.92
2018-03-18T23:18:50.898Z,32.20
2018-03-18T23:21:17.281Z,31.10
2018-03-18T23:23:43.673Z,29.45
2018-03-18T23:26:10.076Z,35.80
2018-03-18T23:28:36.482Z,32.15
2018-03-18T23:31:03.616Z,31.80
2018-03-18T23:33:30.127Z,32.25
2018-03-18T23:35:56.501Z,29.77
2018-03-18T23:38:23.647Z,30.02
2018-03-18T23:40:50.081Z,32.63
2018-03-18T23:43:16.449Z,32.25
2018-03-18T23:45:42.862Z,33.78
2018-03-18T23:48:09.976Z,32.92
2018-03-18T23:50:36.414Z,31.00
2018-03-18T23:53:02.799Z,33.83
2018-03-18T23:55:29.189Z,30.27
2018-03-18T23:57:55.694Z,33.63
